sensor_id;sensor_type;location;lat;lon;timestamp;temperature;humidity
8093;DHT22;4089;52.420;13.334;2023-05-14T00:00:30;13.10;99.90
8093;DHT22;4089;52.420;13.334;2023-05-14T00:02:57;13.10;99.90
8093;DHT22;4089;52.420;13.334;2023-05-14T00:05:24;13.10;99.90
8093;DHT22;4089;52.420;13.334;2023-05-14T00:07:51;13.10;99.90
8093;DHT22;4089;52.420;13.334;2023-05-14T00:10:18;13.10;99.90
8093;DHT22;4089;52.420;13.334;2023-05-14T00:12:47;13.10;99.90
8093;DHT22;4089;52.420;13.334;2023-05-14T00:15:14;13.10;99.90
8093;DHT22;4089;52.420;13.334;2023-05-14T00:17:41;13.10;99.90
8093;DHT22;4089;52.420;13.334;2023-05-14T00:20:08;13.00;99.90
8093;DHT22;4089;52.420;13.334;2023-05-14T00:22:38;12.90;99.90
8093;DHT22;4089;52.420;13.334;2023-05-14T00:25:06;12.90;99.90
8093;DHT22;4089;52.420;13.334;2023-05-14T00:27:33;12.90;99.90
8093;DHT22;4089;52.420;13.334;2023-05-14T00:30:01;12.90;99.90
8093;DHT22;4089;52.420;13.334;2023-05-14T00:32:28;12.90;99.90
8093;DHT22;4089;52.420;13.334;2023-05-14T00:34:55;12.90;99.90
8093;DHT22;4089;52.420;13.334;2023-05-14T00:37:21;12.90;99.90
8093;DHT22;4089;52.420;13.334;2023-05-14T00:39:48;12.90;99.90
8093;DHT22;4089;52.420;13.334;2023-05-14T00:42:15;12.90;99.90
8093;DHT22;4089;52.420;13.334;2023-05-14T00:44:42;12.90;99.90
8093;DHT22;4089;52.420;13.334;2023-05-14T00:47:08;12.90;99.90
8093;DHT22;4089;52.420;13.334;2023-05-14T00:49:35;12.80;99.90
8093;DHT22;4089;52.420;13.334;2023-05-14T00:52:02;12.90;99.90
8093;DHT22;4089;52.420;13.334;2023-05-14T00:54:29;12.90;99.90
8093;DHT22;4089;52.420;13.334;2023-05-14T00:56:57;12.90;99.90
8093;DHT22;4089;52.420;13.334;2023-05-14T00:59:24;12.80;99.90
8093;DHT22;4089;52.420;13.334;2023-05-14T01:01:51;12.80;99.90
8093;DHT22;4089;52.420;13.334;2023-05-14T01:04:18;12.80;99.90
8093;DHT22;4089;52.420;13.334;2023-05-14T01:09:46;12.80;99.90
8093;DHT22;4089;52.420;13.334;2023-05-14T01:12:28;12.80;99.90
8093;DHT22;4089;52.420;13.334;2023-05-14T01:17:40;12.70;99.90
8093;DHT22;4089;52.420;13.334;2023-05-14T01:20:08;12.60;99.90
8093;DHT22;4089;52.420;13.334;2023-05-14T01:22:36;12.60;99.90
8093;DHT22;4089;52.420;13.334;2023-05-14T01:25:04;12.60;99.90
8093;DHT22;4089;52.420;13.334;2023-05-14T01:28:05;12.50;99.90
8093;DHT22;4089;52.420;13.334;2023-05-14T01:30:35;12.50;99.90
8093;DHT22;4089;52.420;13.334;2023-05-14T01:33:06;12.50;99.90
8093;DHT22;4089;52.420;13.334;2023-05-14T01:35:35;12.50;99.90
8093;DHT22;4089;52.420;13.334;2023-05-14T01:38:06;12.40;99.90
8093;DHT22;4089;52.420;13.334;2023-05-14T01:40:35;12.40;99.90
8093;DHT22;4089;52.420;13.334;2023-05-14T01:43:03;12.40;99.90
8093;DHT22;4089;52.420;13.334;2023-05-14T01:45:33;12.40;99.90
8093;DHT22;4089;52.420;13.334;2023-05-14T01:48:00;12.30;99.90
8093;DHT22;4089;52.420;13.334;2023-05-14T01:50:27;12.30;99.90
8093;DHT22;4089;52.420;13.334;2023-05-14T01:52:53;12.20;99.90
8093;DHT22;4089;52.420;13.334;2023-05-14T01:55:22;12.20;99.90
8093;DHT22;4089;52.420;13.334;2023-05-14T01:57:50;12.20;99.90
8093;DHT22;4089;52.420;13.334;2023-05-14T02:00:18;12.20;99.90
8093;DHT22;4089;52.420;13.334;2023-05-14T02:02:45;12.20;99.90
8093;DHT22;4089;52.420;13.334;2023-05-14T02:05:12;12.20;99.90
8093;DHT22;4089;52.420;13.334;2023-05-14T02:07:39;12.20;99.90
8093;DHT22;4089;52.420;13.334;2023-05-14T02:10:06;12.20;99.90
8093;DHT22;4089;52.420;13.334;2023-05-14T02:12:33;12.30;99.90
8093;DHT22;4089;52.420;13.334;2023-05-14T02:15:00;12.20;99.90
8093;DHT22;4089;52.420;13.334;2023-05-14T02:17:27;12.30;99.90
8093;DHT22;4089;52.420;13.334;2023-05-14T02:19:54;12.30;99.90
8093;DHT22;4089;52.420;13.334;2023-05-14T02:22:20;12.30;99.90
8093;DHT22;4089;52.420;13.334;2023-05-14T02:24:47;12.30;99.90
8093;DHT22;4089;52.420;13.334;2023-05-14T02:27:15;12.30;99.90
8093;DHT22;4089;52.420;13.334;2023-05-14T02:29:42;12.30;99.90
8093;DHT22;4089;52.420;13.334;2023-05-14T02:32:08;12.40;99.90
8093;DHT22;4089;52.420;13.334;2023-05-14T02:34:35;12.40;99.90
8093;DHT22;4089;52.420;13.334;2023-05-14T02:37:02;12.40;99.90
8093;DHT22;4089;52.420;13.334;2023-05-14T02:39:29;12.50;99.90
8093;DHT22;4089;52.420;13.334;2023-05-14T02:41:56;12.50;99.90
8093;DHT22;4089;52.420;13.334;2023-05-14T02:44:23;12.50;99.90
8093;DHT22;4089;52.420;13.334;2023-05-14T02:46:50;12.50;99.90
8093;DHT22;4089;52.420;13.334;2023-05-14T02:49:17;12.50;99.90
8093;DHT22;4089;52.420;13.334;2023-05-14T02:51:44;12.50;99.90
8093;DHT22;4089;52.420;13.334;2023-05-14T02:54:11;12.60;99.90
8093;DHT22;4089;52.420;13.334;2023-05-14T02:56:37;12.60;99.90
8093;DHT22;4089;52.420;13.334;2023-05-14T02:59:04;12.60;99.90
8093;DHT22;4089;52.420;13.334;2023-05-14T03:01:31;12.60;99.90
8093;DHT22;4089;52.420;13.334;2023-05-14T03:03:58;12.70;99.90
8093;DHT22;4089;52.420;13.334;2023-05-14T03:06:25;12.70;99.90
8093;DHT22;4089;52.420;13.334;2023-05-14T03:08:52;12.70;99.90
8093;DHT22;4089;52.420;13.334;2023-05-14T03:11:18;12.70;99.90
8093;DHT22;4089;52.420;13.334;2023-05-14T03:13:46;12.80;99.90
8093;DHT22;4089;52.420;13.334;2023-05-14T03:16:12;12.80;99.90
8093;DHT22;4089;52.420;13.334;2023-05-14T03:18:39;12.80;99.90
8093;DHT22;4089;52.420;13.334;2023-05-14T03:21:06;12.80;99.90
8093;DHT22;4089;52.420;13.334;2023-05-14T03:23:34;12.80;99.90
8093;DHT22;4089;52.420;13.334;2023-05-14T03:26:01;12.80;99.90
8093;DHT22;4089;52.420;13.334;2023-05-14T03:28:29;12.90;99.90
8093;DHT22;4089;52.420;13.334;2023-05-14T03:30:56;12.90;99.90
8093;DHT22;4089;52.420;13.334;2023-05-14T03:33:23;12.90;99.90
8093;DHT22;4089;52.420;13.334;2023-05-14T03:35:50;12.90;99.90
8093;DHT22;4089;52.420;13.334;2023-05-14T03:38:17;12.90;99.90
8093;DHT22;4089;52.420;13.334;2023-05-14T03:40:44;13.00;99.90
8093;DHT22;4089;52.420;13.334;2023-05-14T03:43:11;13.00;99.90
8093;DHT22;4089;52.420;13.334;2023-05-14T03:45:37;13.10;99.90
8093;DHT22;4089;52.420;13.334;2023-05-14T03:48:04;13.10;99.90
8093;DHT22;4089;52.420;13.334;2023-05-14T03:50:32;13.00;99.90
8093;DHT22;4089;52.420;13.334;2023-05-14T03:52:58;13.10;99.90
8093;DHT22;4089;52.420;13.334;2023-05-14T03:55:25;13.10;99.90
8093;DHT22;4089;52.420;13.334;2023-05-14T03:57:52;13.00;99.90
8093;DHT22;4089;52.420;13.334;2023-05-14T04:00:19;13.00;99.90
8093;DHT22;4089;52.420;13.334;2023-05-14T04:02:46;13.00;99.90
8093;DHT22;4089;52.420;13.334;2023-05-14T04:05:13;12.90;99.90
8093;DHT22;4089;52.420;13.334;2023-05-14T04:07:40;12.90;99.90
8093;DHT22;4089;52.420;13.334;2023-05-14T04:10:07;12.80;99.90
8093;DHT22;4089;52.420;13.334;2023-05-14T04:12:34;12.80;99.90
8093;DHT22;4089;52.420;13.334;2023-05-14T04:15:01;12.80;99.90
8093;DHT22;4089;52.420;13.334;2023-05-14T04:17:27;12.70;99.90
8093;DHT22;4089;52.420;13.334;2023-05-14T04:19:54;12.60;99.90
8093;DHT22;4089;52.420;13.334;2023-05-14T04:22:21;12.60;99.90
8093;DHT22;4089;52.420;13.334;2023-05-14T04:24:49;12.60;99.90
8093;DHT22;4089;52.420;13.334;2023-05-14T04:27:19;12.60;99.90
8093;DHT22;4089;52.420;13.334;2023-05-14T04:29:49;12.60;99.90
8093;DHT22;4089;52.420;13.334;2023-05-14T04:32:16;12.60;99.90
8093;DHT22;4089;52.420;13.334;2023-05-14T04:34:43;12.60;99.90
8093;DHT22;4089;52.420;13.334;2023-05-14T04:37:10;12.60;99.90
8093;DHT22;4089;52.420;13.334;2023-05-14T04:39:37;12.70;99.90
8093;DHT22;4089;52.420;13.334;2023-05-14T04:42:04;12.80;99.90
8093;DHT22;4089;52.420;13.334;2023-05-14T04:44:33;12.80;99.90
8093;DHT22;4089;52.420;13.334;2023-05-14T04:47:00;12.90;99.90
8093;DHT22;4089;52.420;13.334;2023-05-14T04:49:28;13.00;99.90
8093;DHT22;4089;52.420;13.334;2023-05-14T04:51:55;13.10;99.90
8093;DHT22;4089;52.420;13.334;2023-05-14T04:54:22;13.20;99.90
8093;DHT22;4089;52.420;13.334;2023-05-14T04:56:50;13.30;99.90
8093;DHT22;4089;52.420;13.334;2023-05-14T04:59:16;13.40;99.90
8093;DHT22;4089;52.420;13.334;2023-05-14T05:01:43;13.50;99.90
8093;DHT22;4089;52.420;13.334;2023-05-14T05:04:11;13.60;99.90
8093;DHT22;4089;52.420;13.334;2023-05-14T05:06:38;13.70;99.90
8093;DHT22;4089;52.420;13.334;2023-05-14T05:09:05;13.80;99.90
8093;DHT22;4089;52.420;13.334;2023-05-14T05:11:32;13.90;99.90
8093;DHT22;4089;52.420;13.334;2023-05-14T05:13:59;14.00;99.90
8093;DHT22;4089;52.420;13.334;2023-05-14T05:16:26;14.00;99.90
8093;DHT22;4089;52.420;13.334;2023-05-14T05:18:53;14.00;99.90
8093;DHT22;4089;52.420;13.334;2023-05-14T05:21:19;14.00;99.90
8093;DHT22;4089;52.420;13.334;2023-05-14T05:23:46;14.00;99.90
8093;DHT22;4089;52.420;13.334;2023-05-14T05:26:13;13.90;99.90
8093;DHT22;4089;52.420;13.334;2023-05-14T05:28:40;13.90;99.90
8093;DHT22;4089;52.420;13.334;2023-05-14T05:31:06;13.90;99.90
8093;DHT22;4089;52.420;13.334;2023-05-14T05:33:34;13.80;99.90
8093;DHT22;4089;52.420;13.334;2023-05-14T05:36:01;13.80;99.90
8093;DHT22;4089;52.420;13.334;2023-05-14T05:38:28;13.90;99.90
8093;DHT22;4089;52.420;13.334;2023-05-14T05:40:55;13.90;99.90
8093;DHT22;4089;52.420;13.334;2023-05-14T05:43:22;13.90;99.90
8093;DHT22;4089;52.420;13.334;2023-05-14T05:45:48;13.90;99.90
8093;DHT22;4089;52.420;13.334;2023-05-14T05:48:15;14.00;99.90
8093;DHT22;4089;52.420;13.334;2023-05-14T05:50:42;14.10;99.90
8093;DHT22;4089;52.420;13.334;2023-05-14T05:53:10;14.10;99.90
8093;DHT22;4089;52.420;13.334;2023-05-14T05:55:39;14.20;99.90
8093;DHT22;4089;52.420;13.334;2023-05-14T05:58:06;14.30;99.90
8093;DHT22;4089;52.420;13.334;2023-05-14T06:00:33;14.40;99.90
8093;DHT22;4089;52.420;13.334;2023-05-14T06:03:00;14.50;99.90
8093;DHT22;4089;52.420;13.334;2023-05-14T06:05:27;14.50;99.90
8093;DHT22;4089;52.420;13.334;2023-05-14T06:07:54;14.70;99.90
8093;DHT22;4089;52.420;13.334;2023-05-14T06:10:20;14.70;99.90
8093;DHT22;4089;52.420;13.334;2023-05-14T06:12:47;14.80;99.90
8093;DHT22;4089;52.420;13.334;2023-05-14T06:15:14;14.90;99.90
8093;DHT22;4089;52.420;13.334;2023-05-14T06:17:41;15.00;99.90
8093;DHT22;4089;52.420;13.334;2023-05-14T06:20:08;15.20;99.90
8093;DHT22;4089;52.420;13.334;2023-05-14T06:22:35;15.30;99.90
8093;DHT22;4089;52.420;13.334;2023-05-14T06:25:02;15.40;99.90
8093;DHT22;4089;52.420;13.334;2023-05-14T06:27:29;15.50;99.90
8093;DHT22;4089;52.420;13.334;2023-05-14T06:29:56;15.50;99.90
8093;DHT22;4089;52.420;13.334;2023-05-14T06:32:23;15.50;99.90
8093;DHT22;4089;52.420;13.334;2023-05-14T06:34:50;15.50;99.90
8093;DHT22;4089;52.420;13.334;2023-05-14T06:37:17;15.60;99.90
8093;DHT22;4089;52.420;13.334;2023-05-14T06:39:43;15.70;99.90
8093;DHT22;4089;52.420;13.334;2023-05-14T06:42:16;15.90;99.90
8093;DHT22;4089;52.420;13.334;2023-05-14T06:44:43;16.00;99.90
8093;DHT22;4089;52.420;13.334;2023-05-14T06:47:10;16.10;99.90
8093;DHT22;4089;52.420;13.334;2023-05-14T06:49:38;16.20;99.90
8093;DHT22;4089;52.420;13.334;2023-05-14T06:52:05;16.40;99.90
8093;DHT22;4089;52.420;13.334;2023-05-14T06:54:32;16.40;99.90
8093;DHT22;4089;52.420;13.334;2023-05-14T06:56:58;16.50;99.90
8093;DHT22;4089;52.420;13.334;2023-05-14T06:59:25;16.60;99.90
8093;DHT22;4089;52.420;13.334;2023-05-14T07:01:52;16.60;99.90
8093;DHT22;4089;52.420;13.334;2023-05-14T07:04:19;16.60;99.90
8093;DHT22;4089;52.420;13.334;2023-05-14T07:06:46;16.70;99.90
8093;DHT22;4089;52.420;13.334;2023-05-14T07:09:13;16.80;99.90
8093;DHT22;4089;52.420;13.334;2023-05-14T07:11:39;16.90;99.90
8093;DHT22;4089;52.420;13.334;2023-05-14T07:14:06;17.10;99.90
8093;DHT22;4089;52.420;13.334;2023-05-14T07:16:33;17.20;99.20
8093;DHT22;4089;52.420;13.334;2023-05-14T07:19:00;17.30;99.70
8093;DHT22;4089;52.420;13.334;2023-05-14T07:21:26;17.40;98.70
8093;DHT22;4089;52.420;13.334;2023-05-14T07:23:53;17.40;98.10
8093;DHT22;4089;52.420;13.334;2023-05-14T07:26:20;17.40;98.20
8093;DHT22;4089;52.420;13.334;2023-05-14T07:28:50;17.50;97.80
8093;DHT22;4089;52.420;13.334;2023-05-14T07:31:16;17.60;97.70
8093;DHT22;4089;52.420;13.334;2023-05-14T07:33:43;17.80;97.60
8093;DHT22;4089;52.420;13.334;2023-05-14T07:36:10;18.00;98.50
8093;DHT22;4089;52.420;13.334;2023-05-14T07:38:37;18.10;97.50
8093;DHT22;4089;52.420;13.334;2023-05-14T07:41:04;18.10;96.10
8093;DHT22;4089;52.420;13.334;2023-05-14T07:43:31;18.10;96.60
8093;DHT22;4089;52.420;13.334;2023-05-14T07:45:58;18.30;97.00
8093;DHT22;4089;52.420;13.334;2023-05-14T07:48:25;18.40;94.60
8093;DHT22;4089;52.420;13.334;2023-05-14T07:50:52;18.40;95.10
8093;DHT22;4089;52.420;13.334;2023-05-14T07:53:19;18.40;95.60
8093;DHT22;4089;52.420;13.334;2023-05-14T07:55:47;18.50;95.10
8093;DHT22;4089;52.420;13.334;2023-05-14T07:58:15;18.60;94.80
8093;DHT22;4089;52.420;13.334;2023-05-14T08:00:42;18.70;94.50
8093;DHT22;4089;52.420;13.334;2023-05-14T08:03:09;18.80;95.20
8093;DHT22;4089;52.420;13.334;2023-05-14T08:05:35;19.10;94.60
8093;DHT22;4089;52.420;13.334;2023-05-14T08:08:02;19.30;95.90
8093;DHT22;4089;52.420;13.334;2023-05-14T08:10:29;19.40;95.70
8093;DHT22;4089;52.420;13.334;2023-05-14T08:12:56;19.40;93.00
8093;DHT22;4089;52.420;13.334;2023-05-14T08:15:23;19.30;91.60
8093;DHT22;4089;52.420;13.334;2023-05-14T08:17:53;19.20;92.20
8093;DHT22;4089;52.420;13.334;2023-05-14T08:20:20;19.30;95.00
8093;DHT22;4089;52.420;13.334;2023-05-14T08:22:47;19.40;93.00
8093;DHT22;4089;52.420;13.334;2023-05-14T08:25:14;19.60;92.20
8093;DHT22;4089;52.420;13.334;2023-05-14T08:27:41;19.80;92.30
8093;DHT22;4089;52.420;13.334;2023-05-14T08:30:08;19.80;92.20
8093;DHT22;4089;52.420;13.334;2023-05-14T08:32:35;20.00;91.80
8093;DHT22;4089;52.420;13.334;2023-05-14T08:35:04;20.00;90.90
8093;DHT22;4089;52.420;13.334;2023-05-14T08:37:31;20.10;90.20
8093;DHT22;4089;52.420;13.334;2023-05-14T08:39:59;20.00;87.90
8093;DHT22;4089;52.420;13.334;2023-05-14T08:42:27;20.20;84.70
8093;DHT22;4089;52.420;13.334;2023-05-14T08:45:02;20.20;85.50
8093;DHT22;4089;52.420;13.334;2023-05-14T08:47:29;20.40;85.80
8093;DHT22;4089;52.420;13.334;2023-05-14T08:50:06;20.50;87.60
8093;DHT22;4089;52.420;13.334;2023-05-14T08:52:34;20.80;84.40
8093;DHT22;4089;52.420;13.334;2023-05-14T08:55:05;20.90;88.80
8093;DHT22;4089;52.420;13.334;2023-05-14T08:57:32;20.80;81.00
8093;DHT22;4089;52.420;13.334;2023-05-14T09:00:00;20.90;83.60
8093;DHT22;4089;52.420;13.334;2023-05-14T09:02:29;20.90;79.00
8093;DHT22;4089;52.420;13.334;2023-05-14T09:04:58;21.00;85.60
8093;DHT22;4089;52.420;13.334;2023-05-14T09:07:25;21.30;81.10
8093;DHT22;4089;52.420;13.334;2023-05-14T09:09:53;21.30;76.50
8093;DHT22;4089;52.420;13.334;2023-05-14T09:12:20;21.50;73.80
8093;DHT22;4089;52.420;13.334;2023-05-14T09:14:48;21.50;71.10
8093;DHT22;4089;52.420;13.334;2023-05-14T09:17:16;21.20;69.80
8093;DHT22;4089;52.420;13.334;2023-05-14T09:19:44;21.10;70.30
8093;DHT22;4089;52.420;13.334;2023-05-14T09:22:16;21.20;77.80
8093;DHT22;4089;52.420;13.334;2023-05-14T09:24:43;21.40;71.30
8093;DHT22;4089;52.420;13.334;2023-05-14T09:27:19;21.40;67.80
8093;DHT22;4089;52.420;13.334;2023-05-14T09:29:47;21.30;64.80
8093;DHT22;4089;52.420;13.334;2023-05-14T09:32:14;21.30;66.10
8093;DHT22;4089;52.420;13.334;2023-05-14T09:34:40;21.30;69.10
8093;DHT22;4089;52.420;13.334;2023-05-14T09:37:08;21.30;71.00
8093;DHT22;4089;52.420;13.334;2023-05-14T09:39:36;21.40;69.80
8093;DHT22;4089;52.420;13.334;2023-05-14T09:42:03;21.50;68.60
8093;DHT22;4089;52.420;13.334;2023-05-14T09:44:30;21.70;71.70
8093;DHT22;4089;52.420;13.334;2023-05-14T09:46:57;21.80;69.00
8093;DHT22;4089;52.420;13.334;2023-05-14T09:49:24;21.80;70.10
8093;DHT22;4089;52.420;13.334;2023-05-14T09:51:51;21.90;68.50
8093;DHT22;4089;52.420;13.334;2023-05-14T09:54:18;21.70;63.10
8093;DHT22;4089;52.420;13.334;2023-05-14T09:56:45;21.60;61.60
8093;DHT22;4089;52.420;13.334;2023-05-14T09:59:11;21.40;60.00
8093;DHT22;4089;52.420;13.334;2023-05-14T10:01:41;21.20;58.70
8093;DHT22;4089;52.420;13.334;2023-05-14T10:04:09;21.20;60.70
8093;DHT22;4089;52.420;13.334;2023-05-14T10:06:37;21.20;65.80
8093;DHT22;4089;52.420;13.334;2023-05-14T10:09:09;21.30;63.20
8093;DHT22;4089;52.420;13.334;2023-05-14T10:11:43;21.20;57.90
8093;DHT22;4089;52.420;13.334;2023-05-14T10:14:17;21.10;59.70
8093;DHT22;4089;52.420;13.334;2023-05-14T10:16:47;20.80;57.20
8093;DHT22;4089;52.420;13.334;2023-05-14T10:19:16;20.70;58.30
8093;DHT22;4089;52.420;13.334;2023-05-14T10:21:47;20.60;58.50
8093;DHT22;4089;52.420;13.334;2023-05-14T10:24:18;20.70;58.20
8093;DHT22;4089;52.420;13.334;2023-05-14T10:26:46;20.60;56.30
8093;DHT22;4089;52.420;13.334;2023-05-14T10:29:13;20.60;58.60
8093;DHT22;4089;52.420;13.334;2023-05-14T10:31:53;20.40;58.80
8093;DHT22;4089;52.420;13.334;2023-05-14T10:34:31;20.30;57.70
8093;DHT22;4089;52.420;13.334;2023-05-14T10:37:14;20.30;58.50
8093;DHT22;4089;52.420;13.334;2023-05-14T10:42:11;20.20;57.40
8093;DHT22;4089;52.420;13.334;2023-05-14T10:45:09;20.00;55.60
8093;DHT22;4089;52.420;13.334;2023-05-14T10:47:45;20.00;57.40
8093;DHT22;4089;52.420;13.334;2023-05-14T10:50:15;19.90;56.00
8093;DHT22;4089;52.420;13.334;2023-05-14T10:52:44;19.90;55.70
8093;DHT22;4089;52.420;13.334;2023-05-14T10:55:13;20.00;57.20
8093;DHT22;4089;52.420;13.334;2023-05-14T10:57:42;19.90;56.40
8093;DHT22;4089;52.420;13.334;2023-05-14T11:00:10;19.90;56.30
8093;DHT22;4089;52.420;13.334;2023-05-14T11:02:40;20.00;58.50
8093;DHT22;4089;52.420;13.334;2023-05-14T11:05:08;20.10;58.10
8093;DHT22;4089;52.420;13.334;2023-05-14T11:07:38;20.10;59.60
8093;DHT22;4089;52.420;13.334;2023-05-14T11:10:10;20.10;57.60
8093;DHT22;4089;52.420;13.334;2023-05-14T11:12:39;20.20;58.50
8093;DHT22;4089;52.420;13.334;2023-05-14T11:15:08;20.20;57.20
8093;DHT22;4089;52.420;13.334;2023-05-14T11:17:37;20.20;57.30
8093;DHT22;4089;52.420;13.334;2023-05-14T11:20:04;20.20;56.60
8093;DHT22;4089;52.420;13.334;2023-05-14T11:22:33;20.20;57.20
8093;DHT22;4089;52.420;13.334;2023-05-14T11:24:59;20.10;55.10
8093;DHT22;4089;52.420;13.334;2023-05-14T11:27:26;20.10;54.60
8093;DHT22;4089;52.420;13.334;2023-05-14T11:29:53;20.00;56.30
8093;DHT22;4089;52.420;13.334;2023-05-14T11:32:21;19.90;55.20
8093;DHT22;4089;52.420;13.334;2023-05-14T11:34:48;19.90;56.20
8093;DHT22;4089;52.420;13.334;2023-05-14T11:37:15;20.00;55.90
8093;DHT22;4089;52.420;13.334;2023-05-14T11:39:50;20.00;56.20
8093;DHT22;4089;52.420;13.334;2023-05-14T11:42:18;20.20;56.50
8093;DHT22;4089;52.420;13.334;2023-05-14T11:44:46;20.30;54.70
8093;DHT22;4089;52.420;13.334;2023-05-14T11:47:15;20.70;55.40
8093;DHT22;4089;52.420;13.334;2023-05-14T11:49:43;21.10;57.10
8093;DHT22;4089;52.420;13.334;2023-05-14T11:52:10;21.20;54.40
8093;DHT22;4089;52.420;13.334;2023-05-14T11:54:41;21.20;54.60
8093;DHT22;4089;52.420;13.334;2023-05-14T11:57:14;21.10;53.60
8093;DHT22;4089;52.420;13.334;2023-05-14T11:59:42;21.20;57.90
8093;DHT22;4089;52.420;13.334;2023-05-14T12:02:13;21.10;55.60
8093;DHT22;4089;52.420;13.334;2023-05-14T12:04:41;20.90;56.40
8093;DHT22;4089;52.420;13.334;2023-05-14T12:07:10;20.70;55.90
8093;DHT22;4089;52.420;13.334;2023-05-14T12:09:45;20.70;56.60
8093;DHT22;4089;52.420;13.334;2023-05-14T12:12:21;20.60;55.50
8093;DHT22;4089;52.420;13.334;2023-05-14T12:14:49;20.50;56.30
8093;DHT22;4089;52.420;13.334;2023-05-14T12:17:17;20.50;56.30
8093;DHT22;4089;52.420;13.334;2023-05-14T12:19:47;20.60;57.60
8093;DHT22;4089;52.420;13.334;2023-05-14T12:22:17;20.60;56.70
8093;DHT22;4089;52.420;13.334;2023-05-14T12:24:52;20.60;58.00
8093;DHT22;4089;52.420;13.334;2023-05-14T12:27:27;20.70;56.60
8093;DHT22;4089;52.420;13.334;2023-05-14T12:30:00;20.70;57.30
8093;DHT22;4089;52.420;13.334;2023-05-14T12:32:46;20.80;56.90
8093;DHT22;4089;52.420;13.334;2023-05-14T12:35:17;21.00;55.50
8093;DHT22;4089;52.420;13.334;2023-05-14T12:37:44;21.10;57.20
8093;DHT22;4089;52.420;13.334;2023-05-14T12:40:11;21.20;56.20
8093;DHT22;4089;52.420;13.334;2023-05-14T12:42:38;21.40;57.40
8093;DHT22;4089;52.420;13.334;2023-05-14T12:45:05;21.50;54.30
8093;DHT22;4089;52.420;13.334;2023-05-14T12:47:34;21.70;54.70
8093;DHT22;4089;52.420;13.334;2023-05-14T12:50:02;21.90;54.20
8093;DHT22;4089;52.420;13.334;2023-05-14T12:52:29;21.80;51.40
8093;DHT22;4089;52.420;13.334;2023-05-14T12:55:08;21.90;51.80
8093;DHT22;4089;52.420;13.334;2023-05-14T12:57:36;21.90;50.30
8093;DHT22;4089;52.420;13.334;2023-05-14T13:00:05;21.90;51.90
8093;DHT22;4089;52.420;13.334;2023-05-14T13:02:33;22.00;51.40
8093;DHT22;4089;52.420;13.334;2023-05-14T13:05:09;21.90;48.90
8093;DHT22;4089;52.420;13.334;2023-05-14T13:07:37;21.90;49.30
8093;DHT22;4089;52.420;13.334;2023-05-14T13:10:04;21.80;49.60
8093;DHT22;4089;52.420;13.334;2023-05-14T13:12:31;21.80;48.60
8093;DHT22;4089;52.420;13.334;2023-05-14T13:14:58;21.70;50.20
8093;DHT22;4089;52.420;13.334;2023-05-14T13:17:25;21.60;49.90
8093;DHT22;4089;52.420;13.334;2023-05-14T13:19:52;21.50;51.70
8093;DHT22;4089;52.420;13.334;2023-05-14T13:22:19;21.40;52.50
8093;DHT22;4089;52.420;13.334;2023-05-14T13:24:46;21.20;50.00
8093;DHT22;4089;52.420;13.334;2023-05-14T13:27:12;21.10;49.20
8093;DHT22;4089;52.420;13.334;2023-05-14T13:29:39;21.00;49.50
8093;DHT22;4089;52.420;13.334;2023-05-14T13:32:07;21.00;50.50
8093;DHT22;4089;52.420;13.334;2023-05-14T13:34:34;21.10;49.10
8093;DHT22;4089;52.420;13.334;2023-05-14T13:37:01;21.40;49.00
8093;DHT22;4089;52.420;13.334;2023-05-14T13:39:29;22.00;49.40
8093;DHT22;4089;52.420;13.334;2023-05-14T13:41:56;22.20;48.10
8093;DHT22;4089;52.420;13.334;2023-05-14T13:44:23;22.20;49.00
8093;DHT22;4089;52.420;13.334;2023-05-14T13:46:50;22.10;47.50
8093;DHT22;4089;52.420;13.334;2023-05-14T13:49:17;21.80;48.50
8093;DHT22;4089;52.420;13.334;2023-05-14T13:51:44;21.60;47.10
8093;DHT22;4089;52.420;13.334;2023-05-14T13:54:10;21.40;48.00
8093;DHT22;4089;52.420;13.334;2023-05-14T13:56:37;21.20;47.60
8093;DHT22;4089;52.420;13.334;2023-05-14T13:59:04;20.90;46.50
8093;DHT22;4089;52.420;13.334;2023-05-14T14:01:31;20.80;47.60
8093;DHT22;4089;52.420;13.334;2023-05-14T14:03:58;20.80;48.30
8093;DHT22;4089;52.420;13.334;2023-05-14T14:06:25;20.70;48.10
8093;DHT22;4089;52.420;13.334;2023-05-14T14:08:55;20.70;48.20
8093;DHT22;4089;52.420;13.334;2023-05-14T14:11:22;20.60;48.20
8093;DHT22;4089;52.420;13.334;2023-05-14T14:13:48;20.60;47.60
8093;DHT22;4089;52.420;13.334;2023-05-14T14:16:15;20.60;47.70
8093;DHT22;4089;52.420;13.334;2023-05-14T14:18:42;20.60;47.90
8093;DHT22;4089;52.420;13.334;2023-05-14T14:21:09;20.60;48.40
8093;DHT22;4089;52.420;13.334;2023-05-14T14:23:36;20.60;49.90
8093;DHT22;4089;52.420;13.334;2023-05-14T14:26:03;20.50;46.70
8093;DHT22;4089;52.420;13.334;2023-05-14T14:28:30;20.60;48.50
8093;DHT22;4089;52.420;13.334;2023-05-14T14:30:56;20.60;48.80
8093;DHT22;4089;52.420;13.334;2023-05-14T14:33:23;20.60;47.40
8093;DHT22;4089;52.420;13.334;2023-05-14T14:35:50;20.60;47.50
8093;DHT22;4089;52.420;13.334;2023-05-14T14:38:18;20.60;46.70
8093;DHT22;4089;52.420;13.334;2023-05-14T14:40:45;20.70;47.30
8093;DHT22;4089;52.420;13.334;2023-05-14T14:43:12;20.70;46.70
8093;DHT22;4089;52.420;13.334;2023-05-14T14:45:39;20.80;47.50
8093;DHT22;4089;52.420;13.334;2023-05-14T14:48:31;20.90;46.50
8093;DHT22;4089;52.420;13.334;2023-05-14T14:51:06;20.90;45.40
8093;DHT22;4089;52.420;13.334;2023-05-14T14:53:33;21.10;46.40
8093;DHT22;4089;52.420;13.334;2023-05-14T14:56:01;21.10;46.90
8093;DHT22;4089;52.420;13.334;2023-05-14T14:58:28;21.20;44.30
8093;DHT22;4089;52.420;13.334;2023-05-14T15:00:55;21.30;44.90
8093;DHT22;4089;52.420;13.334;2023-05-14T15:03:23;21.40;44.10
8093;DHT22;4089;52.420;13.334;2023-05-14T15:05:51;21.50;44.90
8093;DHT22;4089;52.420;13.334;2023-05-14T15:08:21;21.80;46.00
8093;DHT22;4089;52.420;13.334;2023-05-14T15:10:48;21.90;44.70
8093;DHT22;4089;52.420;13.334;2023-05-14T15:13:14;22.50;46.00
8093;DHT22;4089;52.420;13.334;2023-05-14T15:15:41;23.30;45.70
8093;DHT22;4089;52.420;13.334;2023-05-14T15:18:08;23.60;44.70
8093;DHT22;4089;52.420;13.334;2023-05-14T15:23:40;23.40;42.50
8093;DHT22;4089;52.420;13.334;2023-05-14T15:26:07;23.60;43.10
8093;DHT22;4089;52.420;13.334;2023-05-14T15:28:33;23.70;40.10
8093;DHT22;4089;52.420;13.334;2023-05-14T15:31:00;23.60;40.30
8093;DHT22;4089;52.420;13.334;2023-05-14T15:33:28;23.80;40.80
8093;DHT22;4089;52.420;13.334;2023-05-14T15:35:54;24.00;40.00
8093;DHT22;4089;52.420;13.334;2023-05-14T15:38:21;23.70;38.20
8093;DHT22;4089;52.420;13.334;2023-05-14T15:40:48;23.40;38.60
8093;DHT22;4089;52.420;13.334;2023-05-14T15:43:16;23.50;39.40
8093;DHT22;4089;52.420;13.334;2023-05-14T15:45:43;23.40;39.60
8093;DHT22;4089;52.420;13.334;2023-05-14T15:48:11;23.40;42.00
8093;DHT22;4089;52.420;13.334;2023-05-14T15:50:37;23.40;43.70
8093;DHT22;4089;52.420;13.334;2023-05-14T15:53:04;23.30;40.90
8093;DHT22;4089;52.420;13.334;2023-05-14T15:55:31;23.40;42.20
8093;DHT22;4089;52.420;13.334;2023-05-14T15:57:58;23.40;39.30
8093;DHT22;4089;52.420;13.334;2023-05-14T16:00:24;23.20;40.00